Time;durP1;ratioP1;P1;durP2;ratioP2;P2;SDS_P1;SDS_P2;PMS_P1;PMS_P2;Temp;Humidity;BMP_temperature;BMP_pressure;BME280_temperature;BME280_humidity;BME280_pressure;Samples;Min_cycle;Max_cycle;Signal;HPM_P1;HPM_P2
2022/09/01 00:01:20;;;;;;;64.25;53.15;;;26.00;50.70;;;;;;4934750;28;95598;-58
2022/09/01 00:03:51;;;;;;;63.65;52.75;;;26.00;50.80;;;;;;4933159;28;91598;-58
2022/09/01 00:06:21;;;;;;;63.75;52.67;;;26.00;50.80;;;;;;4936185;28;91049;-58
2022/09/01 00:08:51;;;;;;;63.63;52.80;;;26.00;50.80;;;;;;4939622;28;89550;-58
2022/09/01 00:11:17;;;;;;;66.07;53.20;;;26.00;50.80;;;;;;4938042;28;92348;-58
2022/09/01 00:13:43;;;;;;;64.95;52.95;;;26.00;50.90;;;;;;4931787;28;94917;-58
2022/09/01 00:16:12;;;;;;;64.38;52.85;;;26.00;50.90;;;;;;4930904;28;90672;-58
2022/09/01 00:18:40;;;;;;;66.40;53.05;;;25.90;50.80;;;;;;4936501;28;91642;-57
2022/09/01 00:21:07;;;;;;;62.95;52.40;;;25.90;50.80;;;;;;4934090;28;89151;-58
2022/09/01 00:23:33;;;;;;;63.13;52.53;;;26.00;50.90;;;;;;4934317;28;90019;-60
2022/09/01 00:25:59;;;;;;;63.28;52.65;;;25.90;50.80;;;;;;4936507;28;90766;-58
2022/09/01 00:28:25;;;;;;;63.78;52.80;;;25.90;50.90;;;;;;4930398;28;91376;-58
2022/09/01 00:30:51;;;;;;;63.50;52.53;;;25.90;50.90;;;;;;4930884;28;91397;-58
2022/09/01 00:33:16;;;;;;;63.35;52.60;;;25.90;51.00;;;;;;4933671;28;90183;-58
2022/09/01 00:35:42;;;;;;;64.68;52.75;;;25.90;51.10;;;;;;4938118;28;91090;-58
2022/09/01 00:38:08;;;;;;;63.03;52.35;;;25.90;51.10;;;;;;4942647;28;89817;-58
2022/09/01 00:40:33;;;;;;;64.60;52.35;;;25.80;51.10;;;;;;4929414;28;94300;-58
2022/09/01 00:42:59;;;;;;;64.97;52.85;;;25.90;51.10;;;;;;4931488;28;90586;-58
2022/09/01 00:45:25;;;;;;;63.28;52.67;;;25.80;51.20;;;;;;4941254;28;89923;-58
2022/09/01 00:47:51;;;;;;;64.55;51.90;;;25.80;51.20;;;;;;4930284;28;90862;-58
2022/09/01 00:50:18;;;;;;;63.60;52.50;;;25.80;51.30;;;;;;4935351;28;89587;-58
2022/09/01 00:52:49;;;;;;;63.25;52.33;;;25.80;51.30;;;;;;4931163;28;96503;-57
2022/09/01 00:55:21;;;;;;;64.28;52.63;;;25.80;51.30;;;;;;4926426;28;92331;-58
2022/09/01 00:57:48;;;;;;;63.45;51.83;;;25.80;51.30;;;;;;4933382;28;90217;-57
2022/09/01 01:00:19;;;;;;;63.60;52.42;;;25.80;51.30;;;;;;4923029;28;89896;-58
2022/09/01 01:02:46;;;;;;;64.35;53.20;;;25.70;51.20;;;;;;4937641;28;90127;-57
2022/09/01 01:05:13;;;;;;;63.88;52.53;;;25.80;51.30;;;;;;4933128;28;89880;-58
2022/09/01 01:07:43;;;;;;;63.33;52.63;;;25.70;51.20;;;;;;4933165;28;90051;-57
2022/09/01 01:10:11;;;;;;;64.28;52.47;;;25.70;51.30;;;;;;4934343;28;91049;-58
2022/09/01 01:12:39;;;;;;;63.08;52.28;;;25.70;51.40;;;;;;4931398;28;90772;-58
2022/09/01 01:15:10;;;;;;;62.53;51.95;;;25.70;51.40;;;;;;4941490;28;93080;-59
2022/09/01 01:17:36;;;;;;;62.92;52.30;;;25.70;51.40;;;;;;4936186;28;91418;-57
2022/09/01 01:23:07;;;;;;;62.53;52.03;;;25.60;51.40;;;;;;4926322;28;90589;-58
2022/09/01 01:25:56;;;;;;;63.22;52.15;;;25.60;51.40;;;;;;4929759;28;90149;-58
2022/09/01 01:28:27;;;;;;;63.85;52.22;;;25.70;51.40;;;;;;4925364;28;90490;-58
2022/09/01 01:31:11;;;;;;;65.45;52.33;;;25.60;51.50;;;;;;4929320;28;91408;-58
2022/09/01 01:33:45;;;;;;;63.10;52.35;;;25.60;51.40;;;;;;4937030;28;89913;-58
2022/09/01 01:36:24;;;;;;;62.13;51.83;;;25.60;51.50;;;;;;4930520;28;92797;-58
2022/09/01 01:38:51;;;;;;;62.90;52.15;;;25.60;51.60;;;;;;4926945;28;89997;-57
2022/09/01 01:41:18;;;;;;;62.33;51.83;;;25.60;51.60;;;;;;4928881;28;89675;-58
2022/09/01 01:43:45;;;;;;;63.40;52.33;;;25.60;51.60;;;;;;4923944;28;91629;-58
2022/09/01 01:46:13;;;;;;;63.05;52.55;;;25.60;51.60;;;;;;4925991;28;91598;-57
2022/09/01 01:48:41;;;;;;;62.97;52.15;;;25.60;51.60;;;;;;4933536;28;92286;-58
2022/09/01 01:51:09;;;;;;;63.90;52.30;;;25.60;51.60;;;;;;4929535;28;90638;-58
2022/09/01 01:53:36;;;;;;;63.83;52.00;;;25.60;51.70;;;;;;4932679;28;90681;-58
2022/09/01 01:56:02;;;;;;;61.85;51.85;;;25.50;51.70;;;;;;4928429;28;95218;-58
2022/09/01 01:58:29;;;;;;;62.60;52.08;;;25.50;51.70;;;;;;4929769;28;90726;-58
2022/09/01 02:00:56;;;;;;;63.63;51.92;;;25.50;51.70;;;;;;4929954;28;89922;-58
2022/09/01 02:03:35;;;;;;;62.65;51.83;;;25.50;51.70;;;;;;4926786;28;90965;-58
2022/09/01 02:06:03;;;;;;;62.08;51.83;;;25.50;51.70;;;;;;4930217;28;90365;-58
2022/09/01 02:08:29;;;;;;;61.80;51.45;;;25.50;51.80;;;;;;4937309;28;90723;-56
2022/09/01 02:10:56;;;;;;;63.83;52.17;;;25.50;51.70;;;;;;4923617;28;91721;-57
2022/09/01 02:13:29;;;;;;;62.22;52.03;;;25.50;51.70;;;;;;4925460;28;90124;-58
2022/09/01 02:15:58;;;;;;;62.97;51.70;;;25.50;51.70;;;;;;4933677;28;91226;-58
2022/09/01 02:18:27;;;;;;;62.45;51.65;;;25.50;51.70;;;;;;4929698;28;95674;-58
2022/09/01 02:20:54;;;;;;;62.10;51.58;;;25.50;51.80;;;;;;4921423;28;93842;-58
2022/09/01 02:23:24;;;;;;;61.55;51.25;;;25.50;51.70;;;;;;4930411;28;90335;-56
2022/09/01 02:25:53;;;;;;;62.15;51.67;;;25.50;51.70;;;;;;4920789;28;90817;-57
2022/09/01 02:28:20;;;;;;;62.05;51.40;;;25.40;51.70;;;;;;4930251;28;94745;-58
2022/09/01 02:30:49;;;;;;;62.13;51.65;;;25.40;51.70;;;;;;4940573;28;95562;-58
2022/09/01 02:33:19;;;;;;;62.70;51.63;;;25.40;51.80;;;;;;4928625;28;90571;-57
2022/09/01 02:35:49;;;;;;;62.25;51.63;;;25.40;51.80;;;;;;4928347;28;90894;-57
2022/09/01 02:38:16;;;;;;;62.22;51.50;;;25.40;51.80;;;;;;4937190;28;89551;-58
2022/09/01 02:40:44;;;;;;;61.80;51.67;;;25.40;51.80;;;;;;4927704;28;90443;-57
2022/09/01 02:43:11;;;;;;;62.10;51.33;;;25.40;51.80;;;;;;4931982;28;96184;-58
2022/09/01 02:45:37;;;;;;;62.13;51.63;;;25.40;51.80;;;;;;4929901;28;91771;-58
2022/09/01 02:48:09;;;;;;;62.05;51.72;;;25.40;51.80;;;;;;4928059;28;91066;-58
2022/09/01 02:50:35;;;;;;;62.72;51.58;;;25.40;51.90;;;;;;4933527;28;89230;-58
2022/09/01 02:53:01;;;;;;;62.22;51.55;;;25.40;52.00;;;;;;4933091;28;90739;-55
2022/09/01 02:55:27;;;;;;;61.90;51.58;;;25.40;51.90;;;;;;4927629;28;99573;-58
2022/09/01 02:57:57;;;;;;;62.40;51.28;;;25.30;51.90;;;;;;4927927;28;90865;-57
2022/09/01 03:00:32;;;;;;;62.53;51.78;;;25.30;51.90;;;;;;4930246;28;90777;-58
2022/09/01 03:02:59;;;;;;;61.95;51.60;;;25.30;51.90;;;;;;4930743;28;90777;-58
2022/09/01 03:05:28;;;;;;;62.03;51.50;;;25.30;52.00;;;;;;4926285;28;92648;-56
2022/09/01 03:07:56;;;;;;;62.55;51.47;;;25.30;52.00;;;;;;4933117;28;90145;-58
2022/09/01 03:10:31;;;;;;;62.95;51.55;;;25.30;52.00;;;;;;4930630;28;90744;-58
2022/09/01 03:13:05;;;;;;;61.50;51.60;;;25.30;52.00;;;;;;4928621;28;91094;-58
2022/09/01 03:15:32;;;;;;;61.83;51.22;;;25.30;52.10;;;;;;4922912;28;89964;-58
2022/09/01 03:18:01;;;;;;;61.80;51.58;;;25.20;51.90;;;;;;4933253;28;89852;-58
2022/09/01 03:20:29;;;;;;;61.42;51.35;;;25.30;52.10;;;;;;4936546;28;89993;-57
2022/09/01 03:22:56;;;;;;;62.25;51.45;;;25.20;52.00;;;;;;4932556;28;91215;-58
2022/09/01 03:25:24;;;;;;;61.25;51.10;;;25.20;52.00;;;;;;4936218;28;89816;-58
2022/09/01 03:27:52;;;;;;;62.55;51.22;;;25.20;52.00;;;;;;4935861;28;90066;-58
2022/09/01 03:30:19;;;;;;;61.20;51.15;;;25.20;52.10;;;;;;4931644;28;89869;-58
2022/09/01 03:32:46;;;;;;;61.25;51.15;;;25.20;52.10;;;;;;4936361;28;91720;-58
2022/09/01 03:35:12;;;;;;;62.75;51.45;;;25.20;52.10;;;;;;4927107;28;89948;-58
2022/09/01 03:37:38;;;;;;;61.90;51.35;;;25.20;52.10;;;;;;4930837;28;89827;-59
2022/09/01 03:40:07;;;;;;;61.33;51.50;;;25.20;52.20;;;;;;4931282;28;91759;-58
2022/09/01 03:42:35;;;;;;;62.22;51.47;;;25.20;52.20;;;;;;4930465;28;95048;-58
2022/09/01 03:45:08;;;;;;;63.15;51.45;;;25.20;52.20;;;;;;4925315;28;91162;-58
2022/09/01 03:47:38;;;;;;;61.08;51.03;;;25.20;52.20;;;;;;4923827;28;90838;-58
2022/09/01 03:50:09;;;;;;;61.53;51.15;;;25.10;52.20;;;;;;4927617;28;89579;-58
2022/09/01 03:52:35;;;;;;;61.22;51.00;;;25.20;52.20;;;;;;4925557;28;89559;-58
2022/09/01 03:55:02;;;;;;;61.53;51.22;;;25.10;52.20;;;;;;4923579;28;90068;-58
2022/09/01 03:57:27;;;;;;;61.67;51.38;;;25.10;52.30;;;;;;4929877;28;90149;-58
2022/09/01 03:59:53;;;;;;;61.97;51.33;;;25.10;52.30;;;;;;4927580;28;89779;-57
2022/09/01 04:02:19;;;;;;;61.50;51.03;;;25.10;52.20;;;;;;4931197;28;93093;-58
2022/09/01 04:04:45;;;;;;;61.78;51.05;;;25.10;52.20;;;;;;4930771;28;91286;-58
2022/09/01 04:07:10;;;;;;;61.90;51.08;;;25.10;52.20;;;;;;4924303;28;90948;-57
2022/09/01 04:09:36;;;;;;;61.70;51.22;;;25.00;52.10;;;;;;4932111;28;89849;-58
2022/09/01 04:12:06;;;;;;;61.20;50.92;;;25.10;52.30;;;;;;4929178;28;92041;-58
2022/09/01 04:14:34;;;;;;;61.50;51.38;;;25.10;52.20;;;;;;4924685;28;92099;-58
2022/09/01 04:19:43;;;;;;;62.15;51.38;;;25.00;52.10;;;;;;4935505;28;91208;-58
2022/09/01 04:22:13;;;;;;;61.75;51.45;;;25.00;52.20;;;;;;4932304;28;90307;-58
2022/09/01 04:24:41;;;;;;;62.40;50.90;;;25.00;52.30;;;;;;4934033;28;90791;-56
2022/09/01 04:27:08;;;;;;;64.15;51.45;;;25.00;52.30;;;;;;4932770;28;90253;-58
2022/09/01 04:29:33;;;;;;;62.80;51.47;;;25.00;52.20;;;;;;4937138;28;90585;-58
2022/09/01 04:32:04;;;;;;;63.22;51.42;;;25.00;52.30;;;;;;4934621;28;90181;-58
2022/09/01 04:34:36;;;;;;;65.47;51.70;;;25.00;52.30;;;;;;4929265;28;90340;-58
2022/09/01 04:37:11;;;;;;;65.13;51.78;;;25.00;52.30;;;;;;4924795;28;90661;-57
2022/09/01 04:39:38;;;;;;;62.72;51.15;;;25.00;52.40;;;;;;4926882;28;90219;-58
2022/09/01 04:42:05;;;;;;;62.38;51.38;;;25.00;52.40;;;;;;4939357;28;90250;-58
2022/09/01 04:44:31;;;;;;;62.67;51.08;;;25.00;52.50;;;;;;4931506;28;90528;-56
2022/09/01 04:46:57;;;;;;;63.10;51.60;;;25.00;52.50;;;;;;4933651;28;91290;-58
2022/09/01 04:49:25;;;;;;;63.00;51.33;;;24.90;52.50;;;;;;4931436;28;89551;-58
2022/09/01 04:51:52;;;;;;;62.15;51.13;;;25.00;52.50;;;;;;4934807;28;89742;-59
2022/09/01 04:54:19;;;;;;;66.20;51.30;;;25.00;52.40;;;;;;4932402;28;90149;-58
2022/09/01 04:56:51;;;;;;;63.20;51.30;;;25.00;52.40;;;;;;4934743;28;93576;-58
2022/09/01 04:59:20;;;;;;;62.45;51.53;;;25.00;52.50;;;;;;4931766;28;91208;-57
2022/09/01 05:01:45;;;;;;;63.55;51.53;;;24.90;52.50;;;;;;4926825;28;92299;-58
2022/09/01 05:04:16;;;;;;;64.00;51.33;;;24.90;52.40;;;;;;4927909;28;89944;-58
2022/09/01 05:06:45;;;;;;;62.58;51.40;;;24.90;52.50;;;;;;4934728;28;90224;-56
2022/09/01 05:09:12;;;;;;;65.57;51.38;;;24.90;52.50;;;;;;4936561;28;90855;-58
2022/09/01 05:11:40;;;;;;;65.25;51.42;;;24.90;52.50;;;;;;4923106;28;90339;-58
2022/09/01 05:14:06;;;;;;;64.00;51.92;;;24.90;52.60;;;;;;4915444;28;94467;-58
2022/09/01 05:16:34;;;;;;;66.13;52.75;;;24.90;52.60;;;;;;4917328;28;89950;-57
2022/09/01 05:19:01;;;;;;;65.95;52.50;;;24.90;52.70;;;;;;4926276;28;90988;-55
2022/09/01 05:21:28;;;;;;;66.32;52.75;;;24.60;50.30;;;;;;4930151;28;90647;-56
2022/09/01 05:23:57;;;;;;;71.45;52.45;;;24.40;48.60;;;;;;4911479;28;91661;-54
2022/09/01 05:26:26;;;;;;;63.90;51.95;;;24.20;48.80;;;;;;4943453;28;90844;-56
2022/09/01 05:28:56;;;;;;;66.70;52.15;;;24.20;47.40;;;;;;4924153;28;91827;-56
2022/09/01 05:31:23;;;;;;;65.90;51.67;;;24.00;47.60;;;;;;4921751;28;90775;-59
2022/09/01 05:33:50;;;;;;;71.55;52.35;;;24.00;47.20;;;;;;4915454;28;91675;-52
2022/09/01 05:36:19;;;;;;;69.22;52.55;;;23.70;48.60;;;;;;4919588;28;90315;-58
2022/09/01 05:38:46;;;;;;;69.65;52.38;;;23.80;48.50;;;;;;4929685;28;92001;-59
2022/09/01 05:41:14;;;;;;;67.38;52.22;;;23.60;47.20;;;;;;4938646;28;91685;-59
2022/09/01 05:43:45;;;;;;;69.30;52.30;;;23.40;48.90;;;;;;4948497;28;90732;-59
2022/09/01 05:46:14;;;;;;;64.60;51.70;;;23.40;48.50;;;;;;4936287;28;90665;-59
2022/09/01 05:48:41;;;;;;;66.03;51.80;;;23.40;48.60;;;;;;4925138;28;90940;-56
2022/09/01 05:51:07;;;;;;;66.55;52.03;;;23.50;48.30;;;;;;4921308;28;92363;-55
2022/09/01 05:53:33;;;;;;;63.95;51.92;;;23.30;48.70;;;;;;4929108;28;89835;-53
2022/09/01 05:56:05;;;;;;;64.22;51.65;;;23.30;48.60;;;;;;4927739;28;90107;-56
2022/09/01 05:58:33;;;;;;;63.70;52.00;;;23.40;47.90;;;;;;4935706;28;94000;-53
2022/09/01 06:00:59;;;;;;;62.45;51.42;;;23.50;47.40;;;;;;4925834;28;91417;-58
2022/09/01 06:03:26;;;;;;;66.18;51.95;;;23.40;48.20;;;;;;4931452;28;92178;-55
2022/09/01 06:05:54;;;;;;;65.18;51.60;;;23.60;48.10;;;;;;4924321;28;90236;-57
2022/09/01 06:08:22;;;;;;;65.53;52.40;;;23.50;48.00;;;;;;4922410;28;89852;-56
2022/09/01 06:10:49;;;;;;;64.75;51.92;;;23.60;47.50;;;;;;4921538;28;90782;-58
2022/09/01 06:13:18;;;;;;;65.05;52.25;;;23.50;48.50;;;;;;4928087;28;91659;-59
2022/09/01 06:15:43;;;;;;;65.60;51.70;;;23.40;48.10;;;;;;4926873;28;90706;-58
2022/09/01 06:18:11;;;;;;;63.72;51.78;;;23.40;48.10;;;;;;4931271;28;90291;-58
2022/09/01 06:20:45;;;;;;;65.15;51.90;;;23.30;49.30;;;;;;4928541;28;89704;-56
2022/09/01 06:23:14;;;;;;;63.97;51.78;;;23.30;49.00;;;;;;4930288;28;92928;-59
2022/09/01 06:25:45;;;;;;;63.17;51.63;;;23.30;47.80;;;;;;4937246;28;90416;-55
2022/09/01 06:28:13;;;;;;;65.63;51.80;;;23.30;49.00;;;;;;4935490;28;89698;-58
2022/09/01 06:30:39;;;;;;;65.20;51.80;;;23.30;49.20;;;;;;4929857;28;89929;-52
2022/09/01 06:33:09;;;;;;;66.95;51.33;;;23.20;49.20;;;;;;4914013;28;90543;-56
2022/09/01 06:35:37;;;;;;;63.88;52.08;;;23.20;49.60;;;;;;4932131;28;93459;-56
2022/09/01 06:38:05;;;;;;;63.88;51.65;;;23.30;48.30;;;;;;4923991;28;90256;-55
2022/09/01 06:40:34;;;;;;;63.40;52.28;;;23.40;49.60;;;;;;4926766;28;91922;-57
2022/09/01 06:43:06;;;;;;;66.45;52.35;;;23.40;49.10;;;;;;4919331;28;91891;-56
2022/09/01 06:45:44;;;;;;;66.07;52.03;;;23.40;48.90;;;;;;4932945;28;90648;-56
2022/09/01 06:48:15;;;;;;;67.25;51.78;;;23.50;48.80;;;;;;4929241;28;95029;-55
2022/09/01 06:50:41;;;;;;;68.30;52.05;;;23.50;48.90;;;;;;4930229;28;90528;-55
2022/09/01 06:53:12;;;;;;;69.43;52.65;;;23.70;48.50;;;;;;4934066;28;89862;-51
2022/09/01 06:55:39;;;;;;;;;;;23.90;48.30;;;;;;4931677;28;90930;-52
2022/09/01 06:58:06;;;;;;;66.47;52.47;;;24.00;48.00;;;;;;4932458;28;89950;-54
2022/09/01 07:00:40;;;;;;;66.43;52.33;;;24.00;47.90;;;;;;4927972;28;91493;-55
2022/09/01 07:03:08;;;;;;;64.70;52.67;;;23.90;48.10;;;;;;4927239;28;90525;-54
2022/09/01 07:05:38;;;;;;;65.05;51.92;;;24.00;47.90;;;;;;4919806;28;90990;-58
2022/09/01 07:08:09;;;;;;;66.60;52.72;;;24.00;48.10;;;;;;4934966;28;90105;-57
2022/09/01 07:10:48;;;;;;;66.70;52.20;;;24.10;47.60;;;;;;4929012;28;90031;-57
2022/09/01 07:13:20;;;;;;;71.43;53.20;;;24.10;47.70;;;;;;4919866;28;95088;-54
2022/09/01 07:15:48;;;;;;;69.75;52.22;;;24.10;47.50;;;;;;4920360;28;90343;-51
2022/09/01 07:18:23;;;;;;;64.85;52.53;;;24.20;48.10;;;;;;4926980;28;89834;-54
2022/09/01 07:20:52;;;;;;;68.63;52.70;;;24.20;47.50;;;;;;4925498;28;91101;-55
2022/09/01 07:23:19;;;;;;;69.10;52.75;;;24.10;47.70;;;;;;4920191;28;89718;-55
2022/09/01 07:25:48;;;;;;;64.75;52.67;;;24.10;47.80;;;;;;4924663;28;91281;-57
2022/09/01 07:28:16;;;;;;;65.95;52.55;;;23.90;48.20;;;;;;4924609;28;91025;-51
2022/09/01 07:30:47;;;;;;;64.22;52.42;;;23.90;48.90;;;;;;4930254;28;92096;-57
2022/09/01 07:33:14;;;;;;;70.00;53.53;;;23.90;48.80;;;;;;4920917;28;91989;-53
2022/09/01 07:35:40;;;;;;;65.47;52.63;;;23.90;49.10;;;;;;4929724;28;90455;-53
2022/09/01 07:38:08;;;;;;;66.38;52.20;;;23.80;49.00;;;;;;4923629;28;92357;-58
2022/09/01 07:40:36;;;;;;;67.30;53.38;;;23.70;49.70;;;;;;4930174;28;90210;-58
2022/09/01 07:43:08;;;;;;;69.05;53.22;;;23.80;48.70;;;;;;4924139;28;92189;-50
2022/09/01 07:45:36;;;;;;;66.30;52.72;;;23.90;49.50;;;;;;4927180;28;90311;-53
2022/09/01 07:48:06;;;;;;;65.93;53.38;;;23.90;49.50;;;;;;4926266;28;89510;-53
2022/09/01 07:50:34;;;;;;;65.85;53.03;;;23.90;49.20;;;;;;4927186;28;90769;-56
2022/09/01 07:53:00;;;;;;;65.95;52.70;;;24.00;49.20;;;;;;4929125;28;91073;-58
2022/09/01 07:55:27;;;;;;;65.43;53.13;;;23.90;49.40;;;;;;4934408;28;90944;-58
2022/09/01 07:57:53;;;;;;;64.80;53.30;;;24.10;49.30;;;;;;4930191;28;90145;-57
2022/09/01 08:00:20;;;;;;;67.25;53.92;;;24.00;48.60;;;;;;4933196;28;90395;-55
2022/09/01 08:02:49;;;;;;;66.05;52.95;;;23.90;49.10;;;;;;4932559;28;91450;-54
2022/09/01 08:05:21;;;;;;;66.10;53.17;;;23.70;50.10;;;;;;4935392;28;89936;-56
2022/09/01 08:07:48;;;;;;;67.07;53.25;;;23.60;50.00;;;;;;4941643;28;89529;-56
2022/09/01 08:10:14;;;;;;;64.53;53.60;;;23.70;50.00;;;;;;4932191;28;90220;-56
2022/09/01 08:12:40;;;;;;;67.53;53.15;;;23.70;49.70;;;;;;4933435;28;90630;-57
2022/09/01 08:15:08;;;;;;;66.20;52.42;;;23.70;50.00;;;;;;4933423;28;89927;-55
2022/09/01 08:17:36;;;;;;;65.40;52.83;;;24.00;50.10;;;;;;4934590;28;89719;-55
2022/09/01 08:20:02;;;;;;;65.43;53.13;;;24.10;49.30;;;;;;4938152;28;91329;-55
2022/09/01 08:22:28;;;;;;;67.18;53.15;;;24.20;49.30;;;;;;4923280;28;94696;-56
2022/09/01 08:24:54;;;;;;;65.22;53.20;;;24.30;49.00;;;;;;4933044;28;89928;-55
2022/09/01 08:27:20;;;;;;;70.03;53.92;;;24.40;48.70;;;;;;4941435;28;90065;-58
2022/09/01 08:29:45;;;;;;;67.00;53.22;;;24.40;48.50;;;;;;4939078;28;89530;-57
2022/09/01 08:32:11;;;;;;;68.88;53.10;;;24.40;48.40;;;;;;4939463;28;90691;-56
2022/09/01 08:34:37;;;;;;;70.30;54.58;;;24.50;48.90;;;;;;4931446;28;92483;-56
2022/09/01 08:37:04;;;;;;;68.90;54.55;;;24.50;48.60;;;;;;4939094;28;90854;-58
2022/09/01 08:39:31;;;;;;;66.55;52.95;;;24.40;48.60;;;;;;4934958;28;90270;-58
2022/09/01 08:42:27;;;;;;;66.53;53.17;;;24.50;48.90;;;;;;4929202;28;91062;-57
2022/09/01 08:45:11;;;;;;;65.50;53.40;;;24.50;48.70;;;;;;4931094;28;92984;-56
2022/09/01 08:47:37;;;;;;;67.82;53.03;;;24.50;49.00;;;;;;4926436;28;90548;-55
2022/09/01 08:50:05;;;;;;;66.22;52.90;;;24.60;48.70;;;;;;4937021;28;92891;-56
2022/09/01 08:52:57;;;;;;;65.63;53.15;;;24.70;48.70;;;;;;4935707;28;89876;-55
2022/09/01 08:55:34;;;;;;;65.53;53.47;;;24.70;48.00;;;;;;4938186;28;91266;-55
2022/09/01 08:58:00;;;;;;;66.55;52.65;;;24.70;47.50;;;;;;4938300;28;90975;-57
2022/09/01 09:00:38;;;;;;;69.03;53.13;;;24.70;48.10;;;;;;4935722;28;89681;-54
2022/09/01 09:03:04;;;;;;;67.40;53.53;;;24.80;48.50;;;;;;4932582;28;89877;-55
2022/09/01 09:05:50;;;;;;;66.30;53.15;;;24.80;48.30;;;;;;4935729;28;89777;-60
2022/09/01 09:08:30;;;;;;;68.28;52.92;;;24.70;48.40;;;;;;4937276;28;92355;-57
2022/09/01 09:11:04;;;;;;;66.90;52.75;;;24.80;48.90;;;;;;4929899;28;91383;-57
2022/09/01 09:13:48;;;;;;;71.18;53.95;;;24.90;48.70;;;;;;4944985;28;94341;-58
2022/09/01 09:16:23;;;;;;;68.78;53.47;;;24.90;48.30;;;;;;4934906;28;90337;-53
2022/09/01 09:18:49;;;;;;;66.40;53.65;;;24.90;48.40;;;;;;4928365;28;90637;-56
2022/09/01 09:21:33;;;;;;;68.22;53.88;;;24.90;48.00;;;;;;4928569;28;90168;-54
2022/09/01 09:24:45;;;;;;;65.32;53.22;;;24.90;48.60;;;;;;4938082;28;90230;-59
2022/09/01 09:27:23;;;;;;;64.40;52.63;;;25.00;48.30;;;;;;4937631;28;89696;-58
2022/09/01 09:29:58;;;;;;;63.97;52.85;;;25.00;48.70;;;;;;4927093;28;91200;-55
2022/09/01 09:32:50;;;;;;;68.07;52.90;;;25.20;47.90;;;;;;4931109;28;91967;-53
2022/09/01 09:35:30;;;;;;;66.32;53.22;;;25.30;47.30;;;;;;4928294;28;89905;-58
2022/09/01 09:38:27;;;;;;;66.43;52.78;;;25.30;47.90;;;;;;4936290;28;91150;-58
2022/09/01 09:41:14;;;;;;;66.30;53.47;;;25.30;47.70;;;;;;4935352;28;89620;-57
2022/09/01 09:43:57;;;;;;;70.47;53.25;;;25.30;47.80;;;;;;4933694;28;90133;-56
2022/09/01 09:46:35;;;;;;;64.88;53.20;;;25.40;47.40;;;;;;4935899;28;89895;-54
2022/09/01 09:49:10;;;;;;;69.22;53.40;;;25.40;48.20;;;;;;4935894;28;89991;-54
2022/09/01 09:51:47;;;;;;;72.22;53.92;;;25.40;47.30;;;;;;4924693;28;91382;-55
2022/09/01 09:54:23;;;;;;;66.85;52.70;;;25.50;46.60;;;;;;4933183;28;89514;-56
2022/09/01 09:57:03;;;;;;;67.72;53.28;;;25.50;47.50;;;;;;4930572;28;89163;-53
2022/09/01 09:59:30;;;;;;;65.40;52.72;;;25.60;47.60;;;;;;4936297;28;96234;-56
2022/09/01 10:02:13;;;;;;;67.70;53.33;;;25.70;47.60;;;;;;4936540;28;89830;-58
2022/09/01 10:04:39;;;;;;;67.30;53.25;;;25.70;47.50;;;;;;4938238;28;96257;-58
2022/09/01 10:07:35;;;;;;;68.68;53.42;;;25.70;47.10;;;;;;4938287;28;90922;-55
2022/09/01 10:10:06;;;;;;;71.28;53.15;;;25.80;46.50;;;;;;4928989;28;90331;-56
2022/09/01 10:12:32;;;;;;;68.15;53.45;;;25.70;46.00;;;;;;4926950;28;90129;-55
2022/09/01 10:15:06;;;;;;;67.88;52.83;;;25.70;46.70;;;;;;4924633;28;90579;-53
2022/09/01 10:17:37;;;;;;;65.63;53.13;;;25.70;47.00;;;;;;4937803;28;90350;-56
2022/09/01 10:20:24;;;;;;;65.72;53.15;;;25.70;47.20;;;;;;4923713;28;89928;-54
2022/09/01 10:22:52;;;;;;;65.93;53.08;;;25.70;47.30;;;;;;4922105;28;91343;-54
2022/09/01 10:25:31;;;;;;;72.82;53.40;;;25.80;46.60;;;;;;4931391;28;90887;-56
2022/09/01 10:28:22;;;;;;;65.80;53.17;;;25.80;47.10;;;;;;4924554;28;90291;-54
2022/09/01 10:30:52;;;;;;;66.78;52.75;;;25.90;45.20;;;;;;4925906;28;91097;-55
2022/09/01 10:33:20;;;;;;;65.80;52.92;;;26.00;46.70;;;;;;4922556;28;90188;-53
2022/09/01 10:35:49;;;;;;;65.90;53.15;;;25.90;46.70;;;;;;4923498;28;92294;-54
2022/09/01 10:38:21;;;;;;;66.32;53.03;;;26.00;46.00;;;;;;4947498;28;91323;-52
2022/09/01 10:41:05;;;;;;;71.13;53.53;;;26.00;46.80;;;;;;4923269;28;89679;-58
2022/09/01 10:43:48;;;;;;;67.70;53.20;;;26.10;46.80;;;;;;4926430;28;90360;-53
2022/09/01 10:46:37;;;;;;;68.88;53.22;;;26.10;46.40;;;;;;4926904;28;89511;-57
2022/09/01 10:49:17;;;;;;;69.75;53.25;;;26.10;46.80;;;;;;4932739;28;89561;-55
2022/09/01 10:51:44;;;;;;;67.97;53.15;;;26.20;46.60;;;;;;4934888;28;89558;-55
2022/09/01 10:54:49;;;;;;;65.97;53.17;;;26.20;46.90;;;;;;4939995;28;93680;-57
2022/09/01 10:57:28;;;;;;;65.65;53.10;;;26.20;46.90;;;;;;4948432;28;90798;-57
2022/09/01 10:59:56;;;;;;;70.25;53.40;;;26.20;46.90;;;;;;4926124;28;90464;-55
2022/09/01 11:02:22;;;;;;;67.30;53.35;;;26.30;46.60;;;;;;4922294;28;93662;-52
2022/09/01 11:04:47;;;;;;;67.43;53.03;;;26.30;45.30;;;;;;4929089;28;90043;-56
2022/09/01 11:07:24;;;;;;;68.45;53.40;;;26.30;46.40;;;;;;4929128;28;91088;-60
2022/09/01 11:10:15;;;;;;;65.85;53.25;;;26.30;46.30;;;;;;4932641;28;90984;-53
2022/09/01 11:13:07;;;;;;;65.13;52.83;;;26.40;46.50;;;;;;4931381;28;89602;-53
2022/09/01 11:15:34;;;;;;;67.35;52.80;;;26.30;46.60;;;;;;4938610;28;89182;-54
2022/09/01 11:18:02;;;;;;;65.28;53.20;;;26.40;46.60;;;;;;4926338;28;90731;-51
2022/09/01 11:20:36;;;;;;;68.20;53.10;;;26.30;45.70;;;;;;4933270;28;89911;-53
2022/09/01 11:23:19;;;;;;;67.55;53.45;;;26.40;46.20;;;;;;4932298;28;90865;-51
2022/09/01 11:25:47;;;;;;;67.32;52.92;;;26.40;45.10;;;;;;4925457;28;90529;-59
2022/09/01 11:28:15;;;;;;;75.78;53.05;;;26.40;44.60;;;;;;4931202;28;89725;-58
2022/09/01 11:30:59;;;;;;;64.80;53.08;;;26.50;44.60;;;;;;4922713;28;90099;-57
2022/09/01 11:33:48;;;;;;;67.47;53.25;;;26.50;45.80;;;;;;4921701;28;89964;-57
2022/09/01 11:36:30;;;;;;;67.65;52.92;;;26.50;45.90;;;;;;4927851;28;89956;-57
2022/09/01 11:39:17;;;;;;;67.95;53.25;;;26.50;45.80;;;;;;4929441;28;90079;-54
2022/09/01 11:41:57;;;;;;;66.47;52.83;;;26.60;46.00;;;;;;4928376;28;89442;-57
2022/09/01 11:44:48;;;;;;;66.82;53.42;;;26.60;46.10;;;;;;4925405;28;92102;-54
2022/09/01 11:47:49;;;;;;;67.95;53.45;;;26.60;46.00;;;;;;4928041;28;90534;-52
2022/09/01 11:50:19;;;;;;;66.85;53.42;;;26.70;46.40;;;;;;4926071;28;90636;-54
2022/09/01 11:53:18;;;;;;;68.82;53.10;;;26.70;46.70;;;;;;4933902;28;89611;-54
2022/09/01 11:55:50;;;;;;;66.35;52.90;;;26.80;46.00;;;;;;4924115;28;89878;-55
2022/09/01 11:58:27;;;;;;;69.38;53.42;;;26.80;44.70;;;;;;4925404;28;89656;-58
2022/09/01 12:01:10;;;;;;;66.65;52.92;;;26.80;45.40;;;;;;4926647;28;90580;-61
2022/09/01 12:03:36;;;;;;;66.63;53.38;;;26.80;43.40;;;;;;4936364;28;90439;-58
2022/09/01 12:06:05;;;;;;;69.82;53.38;;;26.80;45.30;;;;;;4928503;28;89479;-58
2022/09/01 12:08:35;;;;;;;65.95;53.15;;;26.80;45.10;;;;;;4929784;28;89656;-56
2022/09/01 12:11:05;;;;;;;64.97;53.03;;;26.90;45.60;;;;;;4924790;28;92994;-58
2022/09/01 12:13:30;;;;;;;66.60;53.53;;;26.90;45.30;;;;;;4932623;28;90510;-57
2022/09/01 12:16:06;;;;;;;65.93;53.30;;;27.00;43.60;;;;;;4927726;28;90817;-57
2022/09/01 12:18:38;;;;;;;65.43;53.35;;;27.00;45.60;;;;;;4939430;28;91462;-55
2022/09/01 12:21:07;;;;;;;66.28;53.08;;;27.00;45.80;;;;;;4926596;28;94532;-55
2022/09/01 12:23:39;;;;;;;64.80;53.20;;;27.00;44.90;;;;;;4933195;28;89870;-56
2022/09/01 12:26:09;;;;;;;66.15;53.60;;;27.10;45.10;;;;;;4937988;28;90114;-56
2022/09/01 12:28:38;;;;;;;;;;;27.10;45.20;;;;;;4937034;28;93885;-57
2022/09/01 12:31:06;;;;;;;65.80;53.42;;;27.10;45.50;;;;;;4932624;28;91540;-60
2022/09/01 12:33:32;;;;;;;65.43;53.42;;;27.10;44.50;;;;;;4923776;28;90332;-57
2022/09/01 12:36:26;;;;;;;64.53;53.13;;;27.10;45.20;;;;;;4929827;28;89475;-57
2022/09/01 12:38:54;;;;;;;69.53;53.22;;;27.20;44.70;;;;;;4928430;28;90703;-56
2022/09/01 12:41:38;;;;;;;65.32;53.28;;;27.20;45.00;;;;;;4923634;28;93467;-53
2022/09/01 12:44:30;;;;;;;65.85;53.53;;;27.20;43.90;;;;;;4926155;28;89600;-59
2022/09/01 12:47:08;;;;;;;69.43;53.38;;;27.20;44.00;;;;;;4932565;28;89810;-55
2022/09/01 12:49:41;;;;;;;66.80;53.13;;;27.20;44.40;;;;;;4941710;28;89762;-57
2022/09/01 12:52:10;;;;;;;65.57;53.58;;;27.20;44.10;;;;;;4935120;28;90004;-54
2022/09/01 12:54:40;;;;;;;66.90;53.50;;;27.30;43.70;;;;;;4933484;28;92980;-50